Time;durP1;ratioP1;P1;durP2;ratioP2;P2;SDS_P1;SDS_P2;PMS_P1;PMS_P2;Temp;Humidity;BMP_temperature;BMP_pressure;BME280_temperature;BME280_humidity;BME280_pressure;Samples;Min_cycle;Max_cycle;Signal;HPM_P1;HPM_P2
2022/07/20 00:00:34;;;;;;;12.43;7.43;;;;;;;21.94;55.88;93127.88;4768138;30;20040;-73
2022/07/20 00:03:04;;;;;;;15.27;7.57;;;;;;;21.94;55.62;93130.56;4768661;30;20066;-73
2022/07/20 00:05:30;;;;;;;10.48;7.88;;;;;;;21.93;55.75;93131.66;4768172;30;20056;-73
2022/07/20 00:07:55;;;;;;;14.75;7.60;;;;;;;21.90;55.58;93124.34;4752087;30;20051;-73
2022/07/20 00:13:05;;;;;;;14.25;7.07;;;;;;;21.88;55.19;93126.56;4768957;30;20042;-73
2022/07/20 00:15:31;;;;;;;12.02;7.07;;;;;;;21.87;54.79;93125.03;4768035;30;20040;-73
2022/07/20 00:17:57;;;;;;;10.30;7.18;;;;;;;21.87;54.77;93123.16;4737138;30;20047;-73
2022/07/20 00:20:22;;;;;;;11.77;6.25;;;;;;;21.88;54.43;93123.91;4751917;30;20400;-73
2022/07/20 00:22:48;;;;;;;12.32;7.13;;;;;;;21.86;54.20;93128.81;4770417;30;20078;-73
2022/07/20 00:25:14;;;;;;;9.30;6.50;;;;;;;21.84;54.54;93126.47;4769852;30;20075;-73
2022/07/20 00:27:39;;;;;;;14.05;6.70;;;;;;;21.81;54.16;93127.94;4776164;29;20057;-73
2022/07/20 00:30:05;;;;;;;11.65;6.38;;;;;;;21.78;54.22;93125.97;4803704;29;20129;-73
2022/07/20 00:32:38;;;;;;;10.27;6.78;;;;;;;21.77;54.22;93124.44;4786645;29;20058;-73
2022/07/20 00:35:09;;;;;;;9.77;6.47;;;;;;;21.74;54.45;93125.09;4784911;29;20442;-73
2022/07/20 00:37:34;;;;;;;10.73;6.40;;;;;;;21.68;54.54;93123.00;4785653;30;20035;-73
2022/07/20 00:40:00;;;;;;;11.40;6.75;;;;;;;21.68;54.64;93126.44;4769190;30;20106;-73
2022/07/20 00:42:26;;;;;;;13.18;6.70;;;;;;;21.65;54.82;93124.47;4769758;30;20055;-73
2022/07/20 00:44:52;;;;;;;10.77;7.18;;;;;;;21.62;54.97;93125.16;4786884;29;20043;-73
2022/07/20 00:47:18;;;;;;;10.88;7.40;;;;;;;21.62;55.19;93127.81;4785565;30;20051;-73
2022/07/20 00:49:44;;;;;;;13.68;7.45;;;;;;;21.59;55.36;93123.16;4769247;30;20051;-73
2022/07/20 00:52:09;;;;;;;13.00;7.65;;;;;;;21.56;56.23;93121.16;4769430;30;20043;-73
2022/07/20 00:54:35;;;;;;;22.50;8.15;;;;;;;21.53;56.01;93127.19;4770427;30;20039;-73
2022/07/20 00:57:02;;;;;;;17.13;8.30;;;;;;;21.53;56.37;93127.94;4785086;30;20031;-73
2022/07/20 00:59:28;;;;;;;13.63;8.68;;;;;;;21.52;56.63;93121.06;4785259;30;20039;-73
2022/07/20 01:01:55;;;;;;;18.65;9.00;;;;;;;21.52;56.87;93128.28;4785006;30;20043;-73
2022/07/20 01:04:21;;;;;;;14.80;9.27;;;;;;;21.53;57.15;93121.84;4786268;29;20035;-73
2022/07/20 01:06:47;;;;;;;13.98;8.77;;;;;;;21.53;57.27;93127.19;4768999;30;20100;-73
2022/07/20 01:09:13;;;;;;;13.80;8.77;;;;;;;21.54;57.34;93126.06;4769377;30;20487;-73
2022/07/20 01:11:38;;;;;;;18.77;9.02;;;;;;;21.54;57.47;93121.50;4785250;30;20043;-73
2022/07/20 01:14:07;;;;;;;12.15;8.50;;;;;;;21.55;57.71;93123.06;4784911;29;20043;-73
2022/07/20 01:16:33;;;;;;;16.05;9.10;;;;;;;21.55;57.78;93127.63;4804012;29;20446;-73
2022/07/20 01:18:59;;;;;;;15.45;9.80;;;;;;;21.53;58.13;93125.28;4806519;29;20092;-73
2022/07/20 01:21:25;;;;;;;17.88;9.35;;;;;;;21.55;57.96;93124.97;4790609;29;20103;-73
2022/07/20 01:23:51;;;;;;;14.25;8.77;;;;;;;21.55;57.78;93130.28;4789162;29;20514;-73
2022/07/20 01:26:18;;;;;;;20.98;8.80;;;;;;;21.55;57.86;93123.06;4775118;30;20414;-73
2022/07/20 01:28:43;;;;;;;13.93;9.65;;;;;;;21.54;57.90;93129.50;4803481;29;20031;-73
2022/07/20 01:31:09;;;;;;;15.40;8.73;;;;;;;21.54;57.90;93131.38;4796428;29;20120;-73
2022/07/20 01:33:35;;;;;;;14.40;8.95;;;;;;;21.54;58.28;93123.41;4788775;30;20069;-73
2022/07/20 01:36:01;;;;;;;17.33;9.38;;;;;;;21.54;58.26;93121.50;4773298;30;20066;-73
2022/07/20 01:38:27;;;;;;;12.80;8.50;;;;;;;21.51;58.04;93124.84;4772325;30;20043;-73
2022/07/20 01:40:53;;;;;;;19.55;8.55;;;;;;;21.53;57.81;93130.63;4772300;30;20043;-73
2022/07/20 01:43:18;;;;;;;14.23;8.35;;;;;;;21.52;57.51;93122.97;4788449;30;20047;-73
2022/07/20 01:45:44;;;;;;;14.23;7.57;;;;;;;21.52;57.52;93129.06;4789226;29;20042;-72
2022/07/20 01:48:10;;;;;;;15.77;7.40;;;;;;;21.51;57.41;93132.84;4803939;29;20125;-73
2022/07/20 01:50:37;;;;;;;18.02;7.90;;;;;;;21.51;57.17;93130.19;4806511;29;20030;-73
2022/07/20 01:53:03;;;;;;;11.02;7.10;;;;;;;21.50;57.11;93131.28;4789992;29;20176;-73
2022/07/20 01:55:28;;;;;;;13.82;7.32;;;;;;;21.48;57.14;93122.06;4789998;29;20077;-73
2022/07/20 01:57:54;;;;;;;14.10;7.28;;;;;;;21.51;57.11;93132.06;4764331;30;20043;-73
2022/07/20 02:00:20;;;;;;;12.43;7.25;;;;;;;21.50;57.09;93127.84;4788121;30;20058;-73
2022/07/20 02:02:45;;;;;;;15.98;7.68;;;;;;;21.49;57.16;93131.63;4788247;30;20305;-72
2022/07/20 02:05:11;;;;;;;15.50;7.63;;;;;;;21.47;57.29;93125.88;4797984;29;20039;-73
2022/07/20 02:07:37;;;;;;;12.82;7.70;;;;;;;21.45;56.99;93130.75;4777205;29;20467;-73
2022/07/20 02:10:06;;;;;;;13.50;7.53;;;;;;;21.44;57.45;93129.97;4801328;29;20062;-73
2022/07/20 02:12:32;;;;;;;15.82;7.47;;;;;;;21.40;57.70;93124.56;4782800;29;20051;-73
2022/07/20 02:14:58;;;;;;;11.55;7.43;;;;;;;21.39;57.56;93124.84;4805558;29;20039;-73
2022/07/20 02:17:24;;;;;;;14.18;7.68;;;;;;;21.37;57.75;93127.88;4774328;29;20050;-73
2022/07/20 02:19:49;;;;;;;14.25;7.88;;;;;;;21.33;58.16;93121.66;4790134;29;20047;-72
2022/07/20 02:22:15;;;;;;;11.80;7.55;;;;;;;21.30;58.43;93122.34;4771124;30;20059;-73
2022/07/20 02:24:41;;;;;;;21.65;8.10;;;;;;;21.27;58.64;93122.22;4787482;29;20055;-73
2022/07/20 02:27:07;;;;;;;16.80;8.07;;;;;;;21.24;58.80;93112.28;4788152;29;20138;-73
2022/07/20 02:29:33;;;;;;;15.02;8.82;;;;;;;21.21;59.19;93119.03;4803781;29;20149;-73
2022/07/20 02:31:58;;;;;;;13.40;7.93;;;;;;;21.17;59.72;93110.94;4788986;29;20597;-73
2022/07/20 02:34:24;;;;;;;16.45;9.07;;;;;;;21.13;59.35;93111.97;4774336;29;20086;-73
2022/07/20 02:36:49;;;;;;;13.80;8.43;;;;;;;21.11;59.70;93114.19;4805265;29;20050;-72
2022/07/20 02:39:15;;;;;;;14.13;7.88;;;;;;;21.08;60.11;93114.84;4789021;29;20388;-73
2022/07/20 02:41:40;;;;;;;14.82;7.45;;;;;;;21.06;59.78;93111.75;4805545;29;20034;-73
2022/07/20 02:44:06;;;;;;;14.63;8.23;;;;;;;21.07;59.93;93113.28;4805096;29;20039;-73
2022/07/20 02:46:31;;;;;;;12.63;7.78;;;;;;;21.03;60.11;93115.06;4789163;29;20133;-73
2022/07/20 02:48:57;;;;;;;16.05;8.35;;;;;;;20.99;59.88;93110.44;4788185;29;20506;-72
2022/07/20 02:51:22;;;;;;;11.82;7.43;;;;;;;20.97;59.75;93112.66;4787995;29;20131;-73
2022/07/20 02:53:48;;;;;;;14.27;8.23;;;;;;;20.95;59.71;93122.84;4787188;30;20126;-73
2022/07/20 02:56:14;;;;;;;11.27;7.78;;;;;;;20.92;59.81;93118.22;4755843;29;20039;-73
2022/07/20 02:58:39;;;;;;;12.18;7.68;;;;;;;20.92;59.78;93112.88;4771830;30;20315;-73
2022/07/20 03:01:05;;;;;;;15.00;7.18;;;;;;;20.89;59.90;93118.84;4772188;30;20043;-73
2022/07/20 03:03:30;;;;;;;15.15;7.38;;;;;;;20.82;60.00;93107.25;4788231;29;20047;-73
2022/07/20 03:05:56;;;;;;;13.95;7.55;;;;;;;20.84;60.15;93113.00;4804953;29;20070;-73
2022/07/20 03:08:22;;;;;;;12.45;7.40;;;;;;;20.82;59.92;93108.00;4788701;29;20250;-72
2022/07/20 03:10:47;;;;;;;12.93;7.40;;;;;;;20.82;59.92;93102.69;4787070;29;20035;-73
2022/07/20 03:13:13;;;;;;;16.40;8.52;;;;;;;20.81;59.93;93108.38;4804669;29;20046;-73
2022/07/20 03:15:38;;;;;;;17.50;6.90;;;;;;;20.78;59.90;93107.13;4804865;29;20051;-73
2022/07/20 03:18:04;;;;;;;13.93;7.20;;;;;;;20.76;60.02;93106.69;4788402;29;20038;-73
2022/07/20 03:20:32;;;;;;;16.33;7.38;;;;;;;20.73;60.00;93104.69;4784463;29;20050;-73
2022/07/20 03:22:59;;;;;;;12.52;7.03;;;;;;;20.71;59.94;93110.34;4786321;30;20100;-73
2022/07/20 03:25:25;;;;;;;15.00;6.97;;;;;;;20.69;60.21;93114.44;4786796;30;20108;-73
2022/07/20 03:27:56;;;;;;;15.23;6.68;;;;;;;20.66;60.03;93115.13;4778953;29;20061;-73
2022/07/20 03:30:22;;;;;;;16.50;6.88;;;;;;;20.63;60.10;93115.81;4788002;29;20047;-73
2022/07/20 03:32:48;;;;;;;15.73;7.03;;;;;;;20.64;59.97;93117.34;4786955;29;20490;-73
2022/07/20 03:35:14;;;;;;;12.77;7.22;;;;;;;20.64;59.96;93114.69;4804385;29;20042;-73
2022/07/20 03:37:40;;;;;;;12.63;7.07;;;;;;;20.65;60.06;93121.53;4804496;29;20494;-73
2022/07/20 03:40:06;;;;;;;9.93;6.32;;;;;;;20.64;60.18;93112.03;4788120;29;20074;-73
2022/07/20 03:42:33;;;;;;;12.10;6.80;;;;;;;20.61;60.18;93112.69;4786970;29;20042;-73
2022/07/20 03:44:59;;;;;;;9.90;6.57;;;;;;;20.60;60.04;93117.22;4773159;29;20042;-72
2022/07/20 03:47:24;;;;;;;12.10;6.82;;;;;;;20.61;59.95;93112.69;4804636;29;20433;-73
2022/07/20 03:49:50;;;;;;;12.85;6.80;;;;;;;20.59;60.02;93116.44;4788361;29;20035;-73
2022/07/20 03:52:18;;;;;;;12.95;6.78;;;;;;;20.57;60.06;93116.00;4803381;29;20058;-72
2022/07/20 03:54:43;;;;;;;10.60;6.90;;;;;;;20.58;59.89;93114.91;4788056;29;20085;-73
2022/07/20 03:57:09;;;;;;;14.73;7.70;;;;;;;20.58;60.00;93112.25;4804145;29;20070;-73
2022/07/20 03:59:35;;;;;;;10.88;6.38;;;;;;;20.58;59.95;93114.91;4788213;29;20245;-73
2022/07/20 04:02:00;;;;;;;10.90;6.70;;;;;;;20.57;59.98;93113.34;4803527;29;20083;-73
2022/07/20 04:04:27;;;;;;;9.75;6.32;;;;;;;20.56;60.27;93127.75;4787056;29;20055;-73
2022/07/20 04:06:54;;;;;;;16.58;6.28;;;;;;;20.54;60.21;93121.19;4786063;30;20051;-73
2022/07/20 04:09:43;;;;;;;16.75;6.68;;;;;;;20.51;60.67;93124.50;4769841;30;20027;-73
2022/07/20 04:12:07;;;;;;;10.82;6.68;;;;;;;20.49;60.84;93132.84;4785571;29;20047;-73
2022/07/20 04:14:32;;;;;;;12.57;6.60;;;;;;;20.48;60.85;93130.50;4770835;30;20494;-73
2022/07/20 04:16:58;;;;;;;12.52;6.57;;;;;;;20.49;60.90;93132.84;4769915;30;20058;-73
2022/07/20 04:19:24;;;;;;;12.88;6.20;;;;;;;20.49;60.60;93132.84;4786219;30;20051;-73
2022/07/20 04:21:49;;;;;;;15.85;6.88;;;;;;;20.51;60.74;93135.13;4758957;30;20062;-73
2022/07/20 04:24:15;;;;;;;14.20;6.80;;;;;;;20.49;60.90;93132.03;4755097;30;20055;-73
2022/07/20 04:26:40;;;;;;;15.05;6.10;;;;;;;20.49;61.50;93143.47;4778000;30;20043;-73
2022/07/20 04:29:06;;;;;;;12.98;7.05;;;;;;;20.49;61.78;93142.66;4785498;30;20031;-73
2022/07/20 04:31:32;;;;;;;11.00;6.05;;;;;;;20.48;61.48;93143.78;4761070;30;20044;-73
2022/07/20 04:33:57;;;;;;;13.00;6.10;;;;;;;20.48;61.93;93147.22;4751879;30;20131;-73
2022/07/20 04:36:23;;;;;;;12.50;6.30;;;;;;;20.49;61.83;93143.47;4755354;30;20497;-72
2022/07/20 04:38:49;;;;;;;10.02;6.55;;;;;;;20.51;61.68;93143.91;4773214;30;20089;-76
2022/07/20 04:41:14;;;;;;;11.45;6.15;;;;;;;20.53;61.80;93147.00;4756038;30;20766;-76
2022/07/20 04:43:40;;;;;;;13.20;6.32;;;;;;;20.55;62.00;93144.00;4769941;30;20403;-77
2022/07/20 04:46:06;;;;;;;13.98;6.40;;;;;;;20.54;61.88;93139.81;4765961;30;20507;-76
2022/07/20 04:48:31;;;;;;;15.25;6.65;;;;;;;20.59;62.14;93148.38;4751373;30;20054;-76
2022/07/20 04:50:57;;;;;;;15.73;7.65;;;;;;;20.65;62.14;93150.78;4756821;30;20044;-76
2022/07/20 04:53:22;;;;;;;9.70;6.72;;;;;;;20.70;61.73;93150.59;4754118;30;20108;-76
2022/07/20 04:55:48;;;;;;;15.00;6.88;;;;;;;20.75;62.15;93145.03;4744428;30;20043;-76
2022/07/20 04:58:14;;;;;;;13.10;6.97;;;;;;;20.77;62.14;93140.16;4778989;30;20028;-77
2022/07/20 05:00:39;;;;;;;15.68;6.70;;;;;;;20.80;62.24;93147.47;4747239;30;20074;-76
2022/07/20 05:03:05;;;;;;;16.77;7.30;;;;;;;20.84;62.04;93152.91;4757456;30;20043;-76
2022/07/20 05:05:31;;;;;;;15.95;7.13;;;;;;;20.87;62.28;93145.03;4751981;30;20046;-76
2022/07/20 05:07:56;;;;;;;13.85;6.72;;;;;;;20.93;62.34;93149.03;4757890;30;20047;-77
2022/07/20 05:10:22;;;;;;;13.57;7.38;;;;;;;21.00;62.09;93146.56;4772903;30;20040;-77
2022/07/20 05:12:48;;;;;;;22.20;7.78;;;;;;;21.05;62.13;93148.22;4752399;30;20124;-77
2022/07/20 05:15:13;;;;;;;23.67;7.43;;;;;;;21.08;62.29;93146.81;4778250;30;20058;-77
2022/07/20 05:17:39;;;;;;;18.05;7.82;;;;;;;21.14;62.19;93153.41;4756157;30;20047;-77
2022/07/20 05:20:05;;;;;;;14.63;7.20;;;;;;;21.17;62.23;93150.88;4774874;30;20406;-78
2022/07/20 05:22:31;;;;;;;9.95;6.78;;;;;;;21.21;62.08;93161.66;4798421;29;20054;-77
2022/07/20 05:24:57;;;;;;;15.32;7.13;;;;;;;21.26;62.30;93164.06;4819428;29;20053;-77
2022/07/20 05:27:22;;;;;;;10.98;7.20;;;;;;;21.34;62.11;93163.13;4786054;29;20110;-76
2022/07/20 05:29:48;;;;;;;16.50;7.55;;;;;;;21.45;62.04;93162.72;4784113;29;20035;-77
2022/07/20 05:32:14;;;;;;;13.27;7.22;;;;;;;21.56;61.94;93163.78;4771850;29;20078;-76
2022/07/20 05:34:39;;;;;;;12.43;6.80;;;;;;;21.69;62.29;93169.84;4799705;29;20031;-76
2022/07/20 05:37:05;;;;;;;11.25;6.70;;;;;;;21.81;62.42;93162.56;4786153;29;20042;-76
2022/07/20 05:39:31;;;;;;;13.48;7.70;;;;;;;21.94;62.35;93168.63;4800287;29;20050;-76
2022/07/20 05:41:57;;;;;;;14.85;7.25;;;;;;;22.06;61.69;93167.78;4778012;29;20039;-76
2022/07/20 05:44:22;;;;;;;17.45;7.90;;;;;;;22.18;61.79;93170.41;4800005;29;20043;-76
2022/07/20 05:46:48;;;;;;;16.20;7.68;;;;;;;22.30;61.33;93166.16;4787601;29;20043;-77
2022/07/20 05:49:13;;;;;;;18.55;7.32;;;;;;;22.41;61.22;93164.53;4799387;29;20042;-76
2022/07/20 05:51:39;;;;;;;17.40;7.75;;;;;;;22.55;61.08;93161.44;4794932;29;20043;-77
2022/07/20 05:54:05;;;;;;;10.95;7.75;;;;;;;22.68;60.70;93175.47;4785168;29;20579;-77
2022/07/20 05:56:31;;;;;;;15.30;9.40;;;;;;;22.81;60.39;93158.25;4769892;29;20039;-77
2022/07/20 05:58:56;;;;;;;11.05;7.85;;;;;;;23.21;60.00;93175.94;4790311;29;20031;-76
2022/07/20 06:01:22;;;;;;;18.13;8.70;;;;;;;23.79;58.85;93162.66;4785943;29;20050;-77
2022/07/20 06:03:48;;;;;;;20.50;9.07;;;;;;;24.31;56.54;93149.84;4795151;29;20043;-77
2022/07/20 06:06:13;;;;;;;13.85;8.93;;;;;;;24.94;54.98;93165.41;4777468;30;20047;-77
2022/07/20 06:08:39;;;;;;;15.82;9.43;;;;;;;25.53;55.59;93162.44;4773509;30;20067;-77
2022/07/20 06:11:04;;;;;;;17.17;8.77;;;;;;;26.07;54.30;93165.78;4772735;30;20370;-77
2022/07/20 06:13:30;;;;;;;19.58;9.13;;;;;;;26.60;53.08;93162.13;4793825;29;20824;-77
2022/07/20 06:15:56;;;;;;;17.85;11.10;;;;;;;26.89;49.93;93168.50;4803523;29;20127;-77
2022/07/20 06:18:22;;;;;;;23.20;11.05;;;;;;;27.28;48.74;93165.31;4785747;29;20088;-77
2022/07/20 06:20:48;;;;;;;16.92;10.30;;;;;;;27.48;48.59;93165.81;4789932;29;20063;-74
2022/07/20 06:23:14;;;;;;;25.75;13.20;;;;;;;27.71;47.79;93162.84;4789490;29;20043;-74
2022/07/20 06:25:39;;;;;;;24.35;12.40;;;;;;;27.87;47.00;93162.56;4771837;29;20445;-74
2022/07/20 06:28:05;;;;;;;24.77;12.50;;;;;;;28.12;47.44;93168.03;4789906;29;20031;-74
2022/07/20 06:30:30;;;;;;;25.02;13.32;;;;;;;28.18;45.69;93164.59;4787490;30;20078;-75
2022/07/20 06:32:56;;;;;;;25.10;14.18;;;;;;;28.47;44.83;93166.59;4772504;30;20043;-75
2022/07/20 06:35:22;;;;;;;24.23;13.77;;;;;;;28.64;45.15;93165.84;4787755;30;20115;-74
2022/07/20 06:37:48;;;;;;;24.67;13.98;;;;;;;28.46;45.19;93173.88;4771614;30;20142;-74
2022/07/20 06:40:15;;;;;;;24.17;14.30;;;;;;;28.52;45.45;93172.38;4787549;30;20048;-72
2022/07/20 06:42:40;;;;;;;23.55;14.52;;;;;;;28.16;46.22;93172.25;4762731;30;20058;-74
2022/07/20 06:45:06;;;;;;;22.27;14.73;;;;;;;27.80;47.35;93174.03;4788044;30;20126;-74
2022/07/20 06:47:32;;;;;;;30.13;14.50;;;;;;;27.67;49.10;93168.22;4771245;30;20514;-74
2022/07/20 06:49:58;;;;;;;30.67;15.35;;;;;;;27.74;47.32;93178.22;4787600;30;20115;-75
2022/07/20 06:52:23;;;;;;;26.40;14.88;;;;;;;27.62;48.58;93185.47;4788137;29;20517;-74
2022/07/20 06:54:49;;;;;;;21.83;15.02;;;;;;;27.52;48.99;93172.75;4787507;30;20046;-74
2022/07/20 06:57:14;;;;;;;28.73;14.55;;;;;;;27.41;49.40;93177.31;4771864;30;20035;-74
2022/07/20 06:59:40;;;;;;;37.45;16.15;;;;;;;27.50;49.57;93176.97;4771320;30;20051;-74
2022/07/20 07:02:07;;;;;;;25.52;15.10;;;;;;;27.57;49.44;93171.63;4789535;30;20047;-74
2022/07/20 07:04:33;;;;;;;36.63;16.15;;;;;;;27.43;50.37;93179.63;4772225;30;20035;-74
2022/07/20 07:06:59;;;;;;;29.40;15.60;;;;;;;27.30;49.17;93179.94;4771330;30;20126;-74
2022/07/20 07:09:25;;;;;;;28.52;15.40;;;;;;;27.21;48.92;93184.88;4786909;30;20035;-74
2022/07/20 07:11:51;;;;;;;30.45;15.35;;;;;;;27.27;50.14;93188.75;4787015;29;20042;-74
2022/07/20 07:14:16;;;;;;;34.47;16.58;;;;;;;27.13;50.01;93189.41;4771994;30;20122;-74
2022/07/20 07:16:42;;;;;;;34.40;16.05;;;;;;;27.05;50.49;93190.47;4786925;30;20054;-74
2022/07/20 07:19:07;;;;;;;27.08;15.55;;;;;;;27.02;50.69;93185.88;4787090;30;20339;-74
2022/07/20 07:21:33;;;;;;;30.83;16.17;;;;;;;27.08;51.35;93197.03;4786528;30;20063;-73
2022/07/20 07:23:59;;;;;;;31.88;16.58;;;;;;;27.09;50.73;93193.97;4786985;29;20310;-74
2022/07/20 07:26:24;;;;;;;28.90;16.90;;;;;;;27.08;51.55;93184.34;4771541;30;20047;-74
2022/07/20 07:28:50;;;;;;;33.45;16.13;;;;;;;27.36;50.43;93191.09;4786935;30;20103;-74
2022/07/20 07:31:17;;;;;;;30.92;15.73;;;;;;;27.04;51.10;93188.91;4786887;30;20499;-74
2022/07/20 07:33:44;;;;;;;37.33;17.38;;;;;;;26.94;51.30;93187.72;4786740;30;20118;-74
2022/07/20 07:36:09;;;;;;;27.65;15.65;;;;;;;27.25;50.56;93187.59;4787863;29;20046;-74
2022/07/20 07:38:35;;;;;;;27.60;16.73;;;;;;;27.41;48.80;93194.19;4770500;30;20039;-74
2022/07/20 07:41:01;;;;;;;29.20;16.67;;;;;;;27.43;48.70;93196.53;4770796;30;20134;-74
2022/07/20 07:43:27;;;;;;;27.38;16.08;;;;;;;27.40;48.33;93189.19;4786656;30;20122;-74
2022/07/20 07:45:53;;;;;;;34.50;17.52;;;;;;;27.43;49.27;93188.47;4787495;29;20129;-74
2022/07/20 07:48:19;;;;;;;29.42;16.85;;;;;;;27.44;49.08;93181.94;4770428;30;20135;-74
2022/07/20 07:50:45;;;;;;;29.27;16.63;;;;;;;27.61;48.69;93189.31;4770496;30;20078;-74
2022/07/20 07:53:11;;;;;;;24.38;15.48;;;;;;;27.65;48.81;93183.97;4770316;30;20066;-74
2022/07/20 07:55:39;;;;;;;27.65;16.83;;;;;;;27.50;49.25;93191.19;4770806;29;20034;-74
2022/07/20 07:58:05;;;;;;;33.60;16.95;;;;;;;27.27;49.19;93190.66;4786274;30;20070;-74
2022/07/20 08:00:31;;;;;;;26.30;15.88;;;;;;;27.46;50.04;93184.25;4786057;30;20051;-74
2022/07/20 08:02:57;;;;;;;25.70;15.85;;;;;;;27.29;49.22;93188.34;4770215;30;20038;-73
2022/07/20 08:05:22;;;;;;;25.63;16.90;;;;;;;27.24;47.97;93186.03;4786223;30;20118;-74
2022/07/20 08:07:48;;;;;;;37.60;17.05;;;;;;;26.97;48.65;93188.88;4772911;30;20038;-74
2022/07/20 08:10:14;;;;;;;28.58;16.85;;;;;;;26.98;48.66;93179.69;4755124;30;20051;-74
2022/07/20 08:12:40;;;;;;;26.50;15.75;;;;;;;27.27;49.57;93188.75;4769838;30;20044;-74
2022/07/20 08:15:06;;;;;;;29.75;15.32;;;;;;;27.30;48.02;93187.22;4786126;30;20054;-74
2022/07/20 08:17:32;;;;;;;23.95;14.85;;;;;;;27.36;47.37;93191.09;4759695;30;20039;-73
2022/07/20 08:19:58;;;;;;;22.60;15.30;;;;;;;27.46;47.05;93187.69;4770049;30;20053;-74
2022/07/20 08:22:23;;;;;;;26.20;14.88;;;;;;;27.41;46.51;93194.19;4754931;30;20063;-72
2022/07/20 08:24:49;;;;;;;23.35;14.90;;;;;;;27.61;46.19;93186.63;4767289;30;20039;-74
2022/07/20 08:27:15;;;;;;;22.88;15.27;;;;;;;27.38;47.28;93188.78;4767930;30;20050;-74
2022/07/20 08:29:41;;;;;;;27.10;15.60;;;;;;;27.28;47.34;93195.66;4753636;30;20430;-74
2022/07/20 08:32:06;;;;;;;28.30;15.75;;;;;;;27.33;47.34;93186.47;4785875;30;20027;-74
2022/07/20 08:34:32;;;;;;;25.85;14.38;;;;;;;27.14;47.70;93184.78;4785488;30;20047;-74
2022/07/20 08:36:58;;;;;;;25.15;14.68;;;;;;;27.40;47.79;93179.22;4785879;30;20066;-73
2022/07/20 08:39:25;;;;;;;26.27;15.15;;;;;;;27.42;46.90;93186.91;4768498;30;20035;-73
2022/07/20 08:41:50;;;;;;;27.33;14.57;;;;;;;27.48;46.82;93181.97;4754583;30;20055;-73
2022/07/20 08:44:16;;;;;;;16.67;10.38;;;;;;;27.75;42.58;93182.47;4769639;30;20525;-73
2022/07/20 08:46:43;;;;;;;27.63;14.55;;;;;;;28.04;44.88;93186.09;4785809;30;20031;-75
2022/07/20 08:49:09;;;;;;;21.17;13.57;;;;;;;28.03;45.86;93182.63;4747469;30;20464;-76
2022/07/20 08:51:35;;;;;;;23.75;12.73;;;;;;;28.06;45.35;93188.41;4768139;30;20044;-76
2022/07/20 08:54:01;;;;;;;18.92;12.00;;;;;;;28.07;43.54;93190.69;4752031;30;20039;-76
2022/07/20 08:56:27;;;;;;;19.88;10.88;;;;;;;27.82;42.96;93179.81;4767555;30;20050;-73
2022/07/20 08:58:52;;;;;;;24.67;12.48;;;;;;;27.93;43.79;93191.41;4769267;30;20039;-76
2022/07/20 09:01:19;;;;;;;22.98;13.30;;;;;;;27.97;43.52;93192.22;4786065;30;20479;-76
2022/07/20 09:04:03;;;;;;;21.77;10.82;;;;;;;27.72;41.46;93180.53;4785373;30;20286;-80
2022/07/20 09:06:29;;;;;;;20.00;10.35;;;;;;;27.72;42.39;93183.22;4769307;30;20502;-76
2022/07/20 09:09:07;;;;;;;17.88;9.00;;;;;;;28.03;43.15;93185.31;4785413;30;20034;-76
2022/07/20 09:11:33;;;;;;;16.40;9.90;;;;;;;28.05;42.21;93176.09;4775910;30;20043;-76
2022/07/20 09:13:59;;;;;;;16.73;9.93;;;;;;;28.03;40.94;93179.94;4751617;30;20048;-77
2022/07/20 09:16:50;;;;;;;17.10;9.77;;;;;;;28.26;41.59;93178.06;4767900;30;20146;-77
2022/07/20 09:19:16;;;;;;;18.10;9.85;;;;;;;28.38;41.54;93178.47;4751872;30;20040;-77
2022/07/20 09:21:42;;;;;;;13.65;8.55;;;;;;;28.52;38.84;93179.69;4749818;30;20043;-77
2022/07/20 09:24:09;;;;;;;16.60;7.78;;;;;;;28.43;38.61;93177.34;4769753;30;20517;-77
2022/07/20 09:26:36;;;;;;;20.17;8.25;;;;;;;28.36;39.10;93180.00;4785310;30;20043;-77
2022/07/20 09:29:04;;;;;;;10.63;7.53;;;;;;;28.69;39.97;93180.84;4766240;30;20407;-77
2022/07/20 09:31:33;;;;;;;13.18;8.13;;;;;;;28.57;39.68;93176.59;4771268;30;20040;-79
2022/07/20 09:34:03;;;;;;;18.40;9.32;;;;;;;28.51;38.93;93181.63;4768492;30;20031;-77
2022/07/20 09:36:33;;;;;;;18.90;9.35;;;;;;;28.63;38.99;93175.09;4770536;29;20081;-78
2022/07/20 09:39:22;;;;;;;15.05;8.75;;;;;;;28.96;39.62;93167.78;4771645;30;20492;-77
2022/07/20 09:41:58;;;;;;;14.20;8.52;;;;;;;29.15;38.27;93175.50;4756974;30;20054;-79
2022/07/20 09:44:29;;;;;;;13.85;7.68;;;;;;;29.16;38.70;93182.44;4755028;30;20046;-77
2022/07/20 09:46:56;;;;;;;21.23;8.82;;;;;;;29.07;38.35;93171.25;4771597;30;20407;-77
2022/07/20 09:49:29;;;;;;;17.45;8.35;;;;;;;28.77;38.55;93166.25;4771412;30;20302;-78
2022/07/20 09:51:59;;;;;;;15.43;8.77;;;;;;;28.80;39.52;93160.06;4770952;30;20039;-77
2022/07/20 09:54:25;;;;;;;15.00;8.75;;;;;;;29.03;38.09;93160.47;4771315;30;20461;-78
2022/07/20 09:56:51;;;;;;;19.60;9.50;;;;;;;29.18;39.43;93161.25;4782018;30;20047;-77
2022/07/20 09:59:19;;;;;;;15.00;8.90;;;;;;;29.45;38.88;93164.28;4787668;30;20031;-78
2022/07/20 10:01:52;;;;;;;13.13;8.38;;;;;;;29.39;37.89;93159.69;4762187;30;20043;-77
2022/07/20 10:04:19;;;;;;;16.15;8.52;;;;;;;29.56;39.00;93153.44;4787046;30;20521;-77
2022/07/20 10:06:50;;;;;;;14.05;8.40;;;;;;;29.83;39.14;93147.63;4789502;30;20118;-78
2022/07/20 10:09:17;;;;;;;12.93;8.63;;;;;;;29.89;38.65;93156.84;4781735;30;20039;-78
2022/07/20 10:11:44;;;;;;;15.27;9.20;;;;;;;29.76;37.81;93155.75;4761297;30;20529;-77
2022/07/20 10:14:10;;;;;;;16.83;9.43;;;;;;;29.98;37.59;93146.41;4770751;30;20474;-78
2022/07/20 10:16:39;;;;;;;16.40;8.95;;;;;;;29.80;36.72;93148.41;4773956;30;20597;-77
2022/07/20 10:19:07;;;;;;;17.17;8.63;;;;;;;29.60;38.25;93146.13;4789463;30;20072;-79
2022/07/20 10:21:46;;;;;;;17.98;9.38;;;;;;;29.49;37.56;93150.78;4798262;29;20054;-77
2022/07/20 10:24:21;;;;;;;15.13;9.05;;;;;;;29.68;38.38;93147.69;4789449;29;20558;-77
2022/07/20 10:27:08;;;;;;;14.57;9.80;;;;;;;29.70;37.77;93150.00;4807764;29;20092;-78
2022/07/20 10:29:33;;;;;;;15.77;9.60;;;;;;;29.62;38.53;93145.75;4796720;29;20035;-78
2022/07/20 10:32:14;;;;;;;18.25;9.93;;;;;;;29.97;38.21;93142.16;4807083;29;20099;-77
2022/07/20 10:34:48;;;;;;;14.82;9.10;;;;;;;29.98;36.91;93141.00;4785099;29;20038;-75
2022/07/20 10:37:24;;;;;;;16.67;9.32;;;;;;;29.75;38.07;93144.19;4801408;29;20043;-78
2022/07/20 10:39:56;;;;;;;16.02;9.98;;;;;;;30.08;37.35;93142.88;4807316;29;20117;-78
2022/07/20 10:42:40;;;;;;;20.20;10.63;;;;;;;30.10;37.18;93137.06;4808580;29;20038;-78
2022/07/20 10:45:15;;;;;;;20.25;10.68;;;;;;;30.15;37.59;93136.69;4807028;29;20081;-76
2022/07/20 10:47:45;;;;;;;13.90;8.63;;;;;;;30.17;36.82;93128.16;4797012;29;20418;-77
2022/07/20 10:50:20;;;;;;;15.80;9.32;;;;;;;29.68;37.23;93131.50;4791158;29;20051;-78
2022/07/20 10:52:48;;;;;;;14.02;9.35;;;;;;;29.51;38.66;93126.91;4791983;29;20062;-78
2022/07/20 10:55:35;;;;;;;15.65;9.15;;;;;;;29.13;37.91;93120.44;4781672;29;20042;-79
2022/07/20 10:58:15;;;;;;;18.95;9.70;;;;;;;29.19;39.66;93125.06;4796443;29;20035;-78
2022/07/20 11:00:42;;;;;;;19.45;9.68;;;;;;;29.46;39.72;93119.22;4814021;29;20050;-78
2022/07/20 11:03:17;;;;;;;21.17;10.05;;;;;;;29.51;39.06;93121.50;4791497;29;20035;-78
2022/07/20 11:05:45;;;;;;;16.65;10.13;;;;;;;29.40;38.25;93118.06;4800067;29;20073;-80
2022/07/20 11:08:11;;;;;;;18.08;9.50;;;;;;;29.52;39.24;93114.97;4778921;29;20078;-78
2022/07/20 11:10:38;;;;;;;21.95;9.90;;;;;;;29.54;38.85;93119.94;4775022;29;20118;-79
2022/07/20 11:13:06;;;;;;;19.55;10.55;;;;;;;29.52;38.47;93117.66;4790615;29;20031;-79
2022/07/20 11:15:49;;;;;;;19.67;9.93;;;;;;;29.75;38.28;93108.34;4789151;29;20339;-78
2022/07/20 11:18:17;;;;;;;13.00;8.95;;;;;;;29.68;38.58;93104.50;4774919;29;20383;-77
2022/07/20 11:20:46;;;;;;;22.80;10.73;;;;;;;29.53;38.32;93105.69;4779135;29;20460;-77
2022/07/20 11:23:13;;;;;;;17.83;9.80;;;;;;;29.51;38.17;93101.84;4791022;29;20529;-77
2022/07/20 11:25:59;;;;;;;15.18;9.55;;;;;;;29.73;38.23;93099.88;4774984;29;20047;-79